createdAt,value
2019-05-05T00:02:42.413Z,95149.35
2019-05-05T00:05:21.218Z,95150.15
2019-05-05T00:07:54.152Z,95162.73
2019-05-05T00:10:36.469Z,95161.70
2019-05-05T00:13:15.266Z,95167.12
2019-05-05T00:16:04.698Z,95168.48
2019-05-05T00:18:37.642Z,95163.29
2019-05-05T00:21:09.150Z,95164.31
2019-05-05T00:23:40.460Z,95168.80
2019-05-05T00:26:11.975Z,95167.77
2019-05-05T00:28:44.770Z,95174.42
2019-05-05T00:31:16.445Z,95171.70
2019-05-05T00:33:48.799Z,95170.34
2019-05-05T00:36:20.919Z,95172.56
2019-05-05T00:38:52.253Z,95164.58
2019-05-05T00:41:25.356Z,95157.59
2019-05-05T00:43:56.948Z,95155.41
2019-05-05T00:46:55.003Z,95159.80
2019-05-05T00:49:27.516Z,95157.38
2019-05-05T00:51:59.636Z,95156.34
2019-05-05T00:54:30.977Z,95163.33
2019-05-05T00:57:04.310Z,95169.07
2019-05-05T00:59:35.209Z,95172.45
2019-05-05T01:02:17.650Z,95175.94
2019-05-05T01:04:58.972Z,95185.04
2019-05-05T01:07:30.567Z,95172.58
2019-05-05T01:10:01.770Z,95169.66
2019-05-05T01:12:34.864Z,95175.90
2019-05-05T01:15:07.337Z,95176.98
2019-05-05T01:17:42.650Z,95181.97
2019-05-05T01:20:14.626Z,95181.86
2019-05-05T01:22:46.080Z,95191.22
2019-05-05T01:25:17.377Z,95196.27
2019-05-05T01:27:48.883Z,95194.70
2019-05-05T01:30:25.549Z,95198.02
2019-05-05T01:33:02.327Z,95188.91
2019-05-05T01:35:34.230Z,95192.86
2019-05-05T01:38:11.062Z,95201.47
2019-05-05T01:40:56.349Z,95210.99
2019-05-05T01:43:27.551Z,95215.51
2019-05-05T01:45:59.597Z,95219.84
2019-05-05T01:48:30.800Z,95227.13
2019-05-05T01:51:01.991Z,95217.71
2019-05-05T01:53:34.971Z,95220.63
2019-05-05T01:56:06.655Z,95235.63
2019-05-05T01:58:37.888Z,95243.09
2019-05-05T02:01:09.310Z,95237.77
2019-05-05T02:03:40.890Z,95246.98
2019-05-05T02:06:14.250Z,95246.50
2019-05-05T02:08:45.597Z,95246.97
2019-05-05T02:11:16.795Z,95246.02
2019-05-05T02:13:48.145Z,95256.22
2019-05-05T02:16:19.566Z,95257.98
2019-05-05T02:18:51.586Z,95261.59
2019-05-05T02:21:24.764Z,95266.88
2019-05-05T02:24:07.133Z,95266.88
2019-05-05T02:27:05.504Z,95272.35
2019-05-05T02:30:32.085Z,95270.47
2019-05-05T02:33:35.374Z,95278.45
2019-05-05T02:36:35.615Z,95273.75
2019-05-05T02:39:35.348Z,95279.38
2019-05-05T02:42:35.486Z,95279.77
2019-05-05T02:46:00.230Z,95280.06
2019-05-05T02:48:57.693Z,95289.88
2019-05-05T02:51:49.735Z,95289.33
2019-05-05T02:54:33.881Z,95305.22
2019-05-05T02:57:05.190Z,95305.00
2019-05-05T02:59:46.285Z,95309.45
2019-05-05T03:02:21.317Z,95325.41
2019-05-05T03:04:53.680Z,95326.95
2019-05-05T03:07:26.277Z,95333.70
2019-05-05T03:09:58.955Z,95342.78
2019-05-05T03:12:34.492Z,95342.96
2019-05-05T03:15:06.150Z,95345.84
2019-05-05T03:17:37.827Z,95352.55
2019-05-05T03:20:09.450Z,95362.55
2019-05-05T03:22:43.357Z,95364.27
2019-05-05T03:25:14.583Z,95374.19
2019-05-05T03:27:45.782Z,95378.10
2019-05-05T03:30:17.749Z,95386.17
2019-05-05T03:32:50.039Z,95380.11
2019-05-05T03:35:21.604Z,95381.00
2019-05-05T03:37:54.490Z,95380.98
2019-05-05T03:40:28.922Z,95382.34
2019-05-05T03:43:05.150Z,95391.36
2019-05-05T03:45:47.916Z,95391.10
2019-05-05T03:48:19.418Z,95393.27
2019-05-05T03:50:54.036Z,95401.41
2019-05-05T03:53:28.267Z,95398.23
2019-05-05T03:56:00.032Z,95403.00
2019-05-05T03:58:31.567Z,95407.04
2019-05-05T04:01:36.791Z,95398.19
2019-05-05T04:04:27.442Z,95404.01
2019-05-05T04:06:59.021Z,95409.44
2019-05-05T04:09:30.672Z,95408.95
2019-05-05T04:12:04.261Z,95415.81
2019-05-05T04:14:35.020Z,95424.76
2019-05-05T04:17:37.045Z,95430.22
2019-05-05T04:20:29.021Z,95428.27
2019-05-05T04:23:00.337Z,95437.33
2019-05-05T04:25:31.547Z,95444.05
2019-05-05T04:28:04.392Z,95446.09
2019-05-05T04:30:35.861Z,95444.63
2019-05-05T04:33:07.246Z,95446.41
2019-05-05T04:35:38.543Z,95452.51
2019-05-05T04:38:09.894Z,95459.58
2019-05-05T04:40:43.425Z,95457.69
2019-05-05T04:43:14.482Z,95462.32
2019-05-05T04:45:45.967Z,95472.32
2019-05-05T04:48:26.539Z,95476.23
2019-05-05T04:51:07.034Z,95481.45
2019-05-05T04:53:57.275Z,95481.22
2019-05-05T04:56:30.081Z,95490.91
2019-05-05T04:59:03.845Z,95495.52
2019-05-05T05:01:35.013Z,95495.34
2019-05-05T05:04:25.523Z,95503.03
2019-05-05T05:06:58.004Z,95510.14
2019-05-05T05:09:29.684Z,95512.67
2019-05-05T05:12:01.322Z,95517.11
2019-05-05T05:14:33.811Z,95518.80
2019-05-05T05:17:08.526Z,95528.02
2019-05-05T05:19:43.704Z,95537.78
2019-05-05T05:22:15.119Z,95543.19
2019-05-05T05:24:46.859Z,95538.31
2019-05-05T05:27:18.266Z,95545.31
2019-05-05T05:29:49.909Z,95543.00
2019-05-05T05:32:21.109Z,95550.67
2019-05-05T05:34:54.272Z,95553.31
2019-05-05T05:37:25.665Z,95553.84
2019-05-05T05:40:14.338Z,95562.05
2019-05-05T05:42:45.007Z,95566.58
2019-05-05T05:45:30.222Z,95563.02
2019-05-05T05:48:10.808Z,95566.84
2019-05-05T05:50:46.097Z,95562.44
2019-05-05T05:53:17.580Z,95565.05
2019-05-05T05:55:48.808Z,95557.85
2019-05-05T05:58:20.929Z,95554.05
2019-05-05T06:00:55.055Z,95555.56
2019-05-05T06:03:26.435Z,95556.84
2019-05-05T06:05:57.821Z,95560.65
2019-05-05T06:08:30.013Z,95559.02
2019-05-05T06:11:01.555Z,95569.03
2019-05-05T06:13:33.621Z,95573.26
2019-05-05T06:16:05.018Z,95568.56
2019-05-05T06:18:37.405Z,95570.30
2019-05-05T06:21:08.615Z,95563.68
2019-05-05T06:23:40.088Z,95566.50
2019-05-05T06:26:11.311Z,95569.56
2019-05-05T06:28:44.762Z,95575.44
2019-05-05T06:31:16.117Z,95575.63
2019-05-05T06:33:47.691Z,95576.27
2019-05-05T06:36:18.957Z,95577.53
2019-05-05T06:38:50.241Z,95585.57
2019-05-05T06:41:46.592Z,95582.50
2019-05-05T06:44:37.835Z,95593.08
2019-05-05T06:47:14.733Z,95594.28
2019-05-05T06:49:46.022Z,95591.89
2019-05-05T06:52:17.317Z,95599.62
2019-05-05T06:54:48.539Z,95601.98
2019-05-05T06:57:20.000Z,95609.64
2019-05-05T06:59:51.386Z,95610.00
2019-05-05T07:02:23.805Z,95609.17
2019-05-05T07:04:55.724Z,95608.34
2019-05-05T07:07:26.954Z,95611.92
2019-05-05T07:09:58.505Z,95609.35
2019-05-05T07:12:30.117Z,95606.16
2019-05-05T07:15:04.043Z,95602.77
2019-05-05T07:17:34.769Z,95609.53
2019-05-05T07:20:06.280Z,95607.58
2019-05-05T07:22:37.586Z,95610.30
2019-05-05T07:25:09.193Z,95604.58
2019-05-05T07:27:44.066Z,95602.70
2019-05-05T07:30:15.711Z,95601.56
2019-05-05T07:32:47.301Z,95603.91
2019-05-05T07:35:56.063Z,95607.89
2019-05-05T07:38:19.471Z,95613.49
2019-05-05T07:40:54.513Z,95616.00
2019-05-05T07:43:25.900Z,95622.11
2019-05-05T07:45:57.143Z,95618.46
2019-05-05T07:48:28.384Z,95619.23
2019-05-05T07:51:04.462Z,95618.58
2019-05-05T07:53:33.499Z,95617.08
2019-05-05T07:56:07.601Z,95617.95
2019-05-05T07:58:38.177Z,95627.73
2019-05-05T08:01:09.391Z,95620.97
2019-05-05T08:03:40.630Z,95626.16
2019-05-05T08:06:11.930Z,95629.99
2019-05-05T08:08:44.264Z,95623.34
2019-05-05T08:11:16.107Z,95618.63
2019-05-05T08:13:47.426Z,95624.30
2019-05-05T08:16:56.327Z,95630.73
2019-05-05T08:19:49.505Z,95631.68
2019-05-05T08:22:20.793Z,95635.59
2019-05-05T08:24:59.209Z,95638.45
2019-05-05T08:27:58.223Z,95636.41
2019-05-05T08:31:07.002Z,95633.48
2019-05-05T08:33:39.079Z,95634.02
2019-05-05T08:36:10.563Z,95639.26
2019-05-05T08:38:43.979Z,95636.77
2019-05-05T08:41:14.939Z,95644.41
2019-05-05T08:43:46.558Z,95646.68
2019-05-05T08:46:18.281Z,95650.27
2019-05-05T08:48:49.532Z,95648.47
2019-05-05T08:51:20.951Z,95636.95
2019-05-05T08:53:54.421Z,95642.30
2019-05-05T08:56:26.902Z,95646.99
2019-05-05T08:58:58.304Z,95634.34
2019-05-05T09:01:29.645Z,95637.70
2019-05-05T09:04:01.245Z,95630.17
2019-05-05T09:06:34.191Z,95628.39
2019-05-05T09:09:07.363Z,95637.00
2019-05-05T09:11:38.755Z,95641.55
2019-05-05T09:14:10.171Z,95624.05
2019-05-05T09:16:41.447Z,95633.56
2019-05-05T09:19:16.549Z,95630.20
2019-05-05T09:21:47.790Z,95633.28
2019-05-05T09:24:34.160Z,95636.64
2019-05-05T09:27:27.953Z,95635.09
2019-05-05T09:29:57.600Z,95631.13
2019-05-05T09:32:29.055Z,95639.82
2019-05-05T09:35:00.371Z,95642.98
2019-05-05T09:37:31.603Z,95642.91
2019-05-05T09:40:09.678Z,95636.70
2019-05-05T09:42:41.160Z,95648.95
2019-05-05T09:45:13.996Z,95643.77
2019-05-05T09:47:45.528Z,95639.08
2019-05-05T09:50:23.746Z,95638.38
2019-05-05T09:52:55.140Z,95640.08
2019-05-05T09:55:26.520Z,95635.69
2019-05-05T09:57:57.864Z,95639.05
2019-05-05T10:00:30.716Z,95638.34
2019-05-05T10:03:03.830Z,95641.94
2019-05-05T10:05:35.324Z,95635.41
2019-05-05T10:08:06.600Z,95634.23
2019-05-05T10:10:37.965Z,95637.70
2019-05-05T10:13:09.290Z,95640.92
2019-05-05T10:15:41.088Z,95649.98
2019-05-05T10:18:14.333Z,95649.58
2019-05-05T10:20:45.896Z,95647.78
2019-05-05T10:23:17.110Z,95646.47
2019-05-05T10:25:50.443Z,95640.21
2019-05-05T10:28:24.105Z,95640.58
2019-05-05T10:30:55.806Z,95641.23
2019-05-05T10:33:27.118Z,95645.91
2019-05-05T10:35:58.373Z,95639.56
2019-05-05T10:38:30.441Z,95636.79
2019-05-05T10:41:01.810Z,95641.06
2019-05-05T10:43:34.344Z,95644.55
2019-05-05T10:46:05.754Z,95642.31
2019-05-05T10:48:37.052Z,95639.56
2019-05-05T10:51:08.379Z,95629.77
2019-05-05T10:53:39.793Z,95637.87
2019-05-05T10:56:11.118Z,95641.09
2019-05-05T10:58:44.102Z,95642.91
2019-05-05T11:01:15.341Z,95637.45
2019-05-05T11:03:46.966Z,95635.71
2019-05-05T11:06:19.309Z,95636.58
2019-05-05T11:08:50.693Z,95645.84
2019-05-05T11:11:23.829Z,95644.30
2019-05-05T11:13:54.996Z,95640.78
2019-05-05T11:16:26.554Z,95646.06
2019-05-05T11:18:57.772Z,95647.11
2019-05-05T11:21:29.004Z,95647.25
2019-05-05T11:24:00.243Z,95641.48
2019-05-05T11:26:31.498Z,95631.70
2019-05-05T11:29:04.240Z,95640.30
2019-05-05T11:31:35.987Z,95638.83
2019-05-05T11:34:20.088Z,95637.73
2019-05-05T11:37:12.716Z,95640.59
2019-05-05T11:39:44.558Z,95643.92
2019-05-05T11:42:16.029Z,95655.09
2019-05-05T11:44:48.954Z,95661.94
2019-05-05T11:47:20.153Z,95662.39
2019-05-05T11:49:54.516Z,95661.94
2019-05-05T11:52:25.018Z,95667.55
2019-05-05T11:55:08.915Z,95659.31
2019-05-05T11:57:29.092Z,95663.62
2019-05-05T12:00:00.300Z,95661.74
2019-05-05T12:02:33.484Z,95659.17
2019-05-05T12:05:05.441Z,95662.92
2019-05-05T12:07:36.712Z,95658.72
2019-05-05T12:10:15.246Z,95660.18
2019-05-05T12:12:46.727Z,95667.27
2019-05-05T12:15:18.261Z,95672.27
2019-05-05T12:17:49.622Z,95680.45
2019-05-05T12:20:27.363Z,95678.52
2019-05-05T12:22:58.541Z,95687.76
2019-05-05T12:25:57.626Z,95681.06
2019-05-05T12:28:37.162Z,95676.20
2019-05-05T12:31:14.115Z,95672.53
2019-05-05T12:33:45.992Z,95677.52
2019-05-05T12:36:17.163Z,95681.72
2019-05-05T12:38:48.448Z,95678.98
2019-05-05T12:41:21.000Z,95675.05
2019-05-05T12:43:54.826Z,95676.66
2019-05-05T12:46:57.408Z,95675.42
2019-05-05T12:49:28.989Z,95673.43
2019-05-05T12:52:00.177Z,95676.15
2019-05-05T12:54:33.490Z,95678.08
2019-05-05T12:57:04.535Z,95676.58
2019-05-05T12:59:36.016Z,95679.52
2019-05-05T13:02:07.856Z,95676.76
2019-05-05T13:04:39.200Z,95680.29
2019-05-05T13:07:10.410Z,95682.13
2019-05-05T13:09:44.097Z,95685.38
2019-05-05T13:12:15.841Z,95678.70
2019-05-05T13:14:47.534Z,95681.52
2019-05-05T13:17:18.727Z,95681.80
2019-05-05T13:19:56.376Z,95683.55
2019-05-05T13:22:44.259Z,95681.39
2019-05-05T13:25:28.520Z,95674.81
2019-05-05T13:27:59.718Z,95679.47
2019-05-05T13:30:30.904Z,95680.73
2019-05-05T13:33:03.714Z,95680.13
2019-05-05T13:35:36.642Z,95677.88
2019-05-05T13:38:08.238Z,95677.36
2019-05-05T13:40:39.497Z,95675.31
2019-05-05T13:43:10.960Z,95686.05
2019-05-05T13:45:58.582Z,95682.74
2019-05-05T13:48:29.779Z,95686.55
2019-05-05T13:51:04.308Z,95684.05
2019-05-05T13:53:35.705Z,95677.98
2019-05-05T13:56:11.918Z,95673.20
2019-05-05T13:58:39.902Z,95675.16
2019-05-05T14:01:11.812Z,95676.59
2019-05-05T14:03:49.069Z,95674.55
2019-05-05T14:06:20.461Z,95674.14
2019-05-05T14:08:54.120Z,95688.68
2019-05-05T14:11:25.229Z,95692.77
2019-05-05T14:13:56.799Z,95697.44
2019-05-05T14:16:28.599Z,95692.28
2019-05-05T14:18:59.861Z,95696.02
2019-05-05T14:21:31.240Z,95696.45
2019-05-05T14:24:34.272Z,95696.62
2019-05-05T14:27:05.902Z,95692.19
2019-05-05T14:29:49.096Z,95689.27
2019-05-05T14:32:30.216Z,95680.47
2019-05-05T14:35:20.370Z,95686.67
2019-05-05T14:37:54.552Z,95690.92
2019-05-05T14:40:26.056Z,95695.05
2019-05-05T14:42:57.353Z,95708.14
2019-05-05T14:45:35.479Z,95705.91
2019-05-05T14:48:13.957Z,95714.53
2019-05-05T14:50:54.276Z,95713.23
2019-05-05T14:53:32.101Z,95710.45
2019-05-05T14:56:13.686Z,95715.84
2019-05-05T14:58:45.148Z,95709.55
2019-05-05T15:01:16.345Z,95721.30
2019-05-05T15:03:53.423Z,95721.50
2019-05-05T15:06:43.824Z,95727.73
2019-05-05T15:09:24.672Z,95727.49
2019-05-05T15:12:14.395Z,95736.03
2019-05-05T15:14:47.282Z,95730.23
2019-05-05T15:17:37.391Z,95728.14
2019-05-05T15:20:15.812Z,95727.27
2019-05-05T15:22:47.020Z,95728.22
2019-05-05T15:25:18.228Z,95726.88
2019-05-05T15:27:50.103Z,95730.09
2019-05-05T15:30:24.171Z,95735.88
2019-05-05T15:32:54.469Z,95741.16
2019-05-05T15:35:25.677Z,95741.83
2019-05-05T15:37:56.957Z,95743.66
2019-05-05T15:40:28.167Z,95746.58
2019-05-05T15:42:59.411Z,95752.67
2019-05-05T15:45:33.985Z,95751.16
2019-05-05T15:48:05.335Z,95756.52
2019-05-05T15:50:40.313Z,95759.91
2019-05-05T15:53:12.027Z,95765.61
2019-05-05T15:55:43.291Z,95768.64
2019-05-05T15:58:14.597Z,95772.53
2019-05-05T16:00:47.843Z,95770.15
2019-05-05T16:03:19.677Z,95766.65
2019-05-05T16:05:57.258Z,95761.80
2019-05-05T16:08:37.299Z,95763.44
2019-05-05T16:11:14.373Z,95769.03
2019-05-05T16:13:48.443Z,95767.08
2019-05-05T16:16:38.591Z,95775.32
2019-05-05T16:19:28.933Z,95773.90
2019-05-05T16:22:05.292Z,95779.05
2019-05-05T16:24:38.561Z,95774.44
2019-05-05T16:27:21.131Z,95767.77
2019-05-05T16:29:44.209Z,95776.65
2019-05-05T16:32:21.820Z,95776.88
2019-05-05T16:34:48.545Z,95771.66
2019-05-05T16:37:19.866Z,95771.50
2019-05-05T16:39:51.227Z,95777.72
2019-05-05T16:42:23.993Z,95782.73
2019-05-05T16:44:55.447Z,95783.55
2019-05-05T16:47:27.015Z,95779.98
2019-05-05T16:49:58.551Z,95786.15
2019-05-05T16:52:35.269Z,95784.13
2019-05-05T16:55:13.483Z,95784.61
2019-05-05T16:57:46.571Z,95787.53
2019-05-05T17:00:21.408Z,95791.83
2019-05-05T17:02:53.358Z,95792.38
2019-05-05T17:05:24.396Z,95786.70
2019-05-05T17:07:58.510Z,95787.97
2019-05-05T17:10:29.977Z,95783.30
2019-05-05T17:13:06.953Z,95796.84
2019-05-05T17:15:58.763Z,95793.20
2019-05-05T17:18:44.763Z,95794.03
2019-05-05T17:21:19.822Z,95796.49
2019-05-05T17:23:51.183Z,95808.75
2019-05-05T17:26:24.281Z,95806.12
2019-05-05T17:28:55.668Z,95802.92
2019-05-05T17:31:26.880Z,95803.31
2019-05-05T17:33:58.087Z,95801.82
2019-05-05T17:36:29.412Z,95808.51
2019-05-05T17:39:00.746Z,95807.45
2019-05-05T17:41:50.221Z,95811.48
2019-05-05T17:44:29.195Z,95822.89
2019-05-05T17:47:18.080Z,95819.91
2019-05-05T17:50:04.002Z,95829.91
2019-05-05T17:53:04.935Z,95826.61
2019-05-05T17:55:37.801Z,95822.30
2019-05-05T17:58:09.014Z,95820.23
2019-05-05T18:00:49.124Z,95814.85
2019-05-05T18:03:22.320Z,95817.67
2019-05-05T18:06:16.950Z,95817.90
2019-05-05T18:08:51.232Z,95818.52
2019-05-05T18:11:39.217Z,95821.21
2019-05-05T18:14:15.796Z,95824.28
2019-05-05T18:16:46.987Z,95825.66
2019-05-05T18:19:18.243Z,95828.25
2019-05-05T18:21:49.550Z,95828.27
2019-05-05T18:24:26.244Z,95830.62
2019-05-05T18:26:57.508Z,95836.96
2019-05-05T18:29:29.078Z,95844.37
2019-05-05T18:32:04.208Z,95857.78
2019-05-05T18:34:35.037Z,95855.48
2019-05-05T18:37:06.649Z,95849.95
2019-05-05T18:39:37.904Z,95843.50
2019-05-05T18:42:16.047Z,95853.56
2019-05-05T18:44:49.931Z,95854.35
2019-05-05T18:47:24.866Z,95855.89
2019-05-05T18:49:55.718Z,95859.27
2019-05-05T18:52:27.015Z,95860.69
2019-05-05T18:54:58.455Z,95862.78
2019-05-05T18:57:29.784Z,95869.97
2019-05-05T19:00:03.661Z,95870.45
2019-05-05T19:02:54.038Z,95876.95
2019-05-05T19:05:47.209Z,95876.23
2019-05-05T19:08:28.417Z,95878.42
2019-05-05T19:11:00.037Z,95881.59
2019-05-05T19:13:31.294Z,95877.23
2019-05-05T19:16:03.612Z,95883.93
2019-05-05T19:18:34.946Z,95883.05
2019-05-05T19:21:21.857Z,95889.84
2019-05-05T19:23:54.173Z,95887.21
2019-05-05T19:26:25.771Z,95899.27
2019-05-05T19:28:56.988Z,95896.44
2019-05-05T19:31:28.436Z,95896.06
2019-05-05T19:33:59.805Z,95901.52
2019-05-05T19:36:31.156Z,95900.23
2019-05-05T19:39:04.094Z,95900.00
2019-05-05T19:41:36.696Z,95896.38
2019-05-05T19:44:07.945Z,95894.36
2019-05-05T19:46:46.670Z,95900.98
2019-05-05T19:49:18.820Z,95898.34
2019-05-05T19:51:50.754Z,95902.52
2019-05-05T19:54:21.944Z,95897.53
2019-05-05T19:56:54.226Z,95896.72
2019-05-05T19:59:25.597Z,95900.83
2019-05-05T20:01:57.373Z,95902.16
2019-05-05T20:04:29.353Z,95901.27
2019-05-05T20:07:01.368Z,95887.47
2019-05-05T20:09:34.082Z,95893.55
2019-05-05T20:12:05.628Z,95896.98
2019-05-05T20:14:36.843Z,95900.00
2019-05-05T20:17:14.736Z,95898.55
2019-05-05T20:19:46.332Z,95895.36
2019-05-05T20:22:17.591Z,95902.89
2019-05-05T20:24:48.821Z,95898.89
2019-05-05T20:27:20.417Z,95895.62
2019-05-05T20:29:51.946Z,95900.16
2019-05-05T20:32:30.359Z,95893.81
2019-05-05T20:35:33.852Z,95899.71
2019-05-05T20:38:11.492Z,95897.91
2019-05-05T20:40:44.346Z,95902.34
2019-05-05T20:43:15.754Z,95894.72
2019-05-05T20:45:47.417Z,95902.69
2019-05-05T20:48:18.912Z,95898.88
2019-05-05T20:50:52.161Z,95905.48
2019-05-05T20:53:27.192Z,95909.91
2019-05-05T20:55:58.448Z,95910.01
2019-05-05T20:58:30.756Z,95909.47
2019-05-05T21:01:04.251Z,95905.86
2019-05-05T21:03:35.111Z,95897.50
2019-05-05T21:06:06.493Z,95898.57
2019-05-05T21:08:37.866Z,95895.94
2019-05-05T21:11:09.130Z,95891.26
2019-05-05T21:13:40.413Z,95886.63
2019-05-05T21:16:14.000Z,95884.63
2019-05-05T21:18:44.600Z,95883.02
2019-05-05T21:21:20.945Z,95884.73
2019-05-05T21:23:55.762Z,95883.20
2019-05-05T21:26:50.675Z,95883.39
2019-05-05T21:29:23.700Z,95888.48
2019-05-05T21:31:55.825Z,95885.30
2019-05-05T21:34:27.443Z,95887.02
2019-05-05T21:36:58.800Z,95888.09
2019-05-05T21:39:30.470Z,95893.45
2019-05-05T21:42:04.464Z,95892.08
2019-05-05T21:44:34.877Z,95896.24
2019-05-05T21:47:06.402Z,95891.70
2019-05-05T21:49:37.601Z,95895.91
2019-05-05T21:52:15.307Z,95893.70
2019-05-05T21:54:53.579Z,95899.71
2019-05-05T21:57:37.923Z,95901.61
2019-05-05T22:00:29.142Z,95895.89
2019-05-05T22:03:04.361Z,95896.34
2019-05-05T22:05:35.167Z,95901.27
2019-05-05T22:08:07.032Z,95902.73
2019-05-05T22:10:38.364Z,95901.36
2019-05-05T22:13:09.842Z,95905.51
2019-05-05T22:15:41.065Z,95903.43
2019-05-05T22:18:14.462Z,95906.25
2019-05-05T22:20:51.860Z,95903.62
2019-05-05T22:23:25.144Z,95902.70
2019-05-05T22:25:56.366Z,95902.73
2019-05-05T22:28:28.573Z,95898.09
2019-05-05T22:31:00.165Z,95900.80
2019-05-05T22:33:33.984Z,95896.83
2019-05-05T22:36:07.131Z,95894.48
2019-05-05T22:38:38.686Z,95891.65
2019-05-05T22:41:10.483Z,95887.19
2019-05-05T22:43:41.832Z,95889.12
2019-05-05T22:46:14.180Z,95884.04
2019-05-05T22:48:46.499Z,95887.39
2019-05-05T22:51:17.735Z,95884.31
2019-05-05T22:53:49.000Z,95881.94
2019-05-05T22:56:20.513Z,95879.68
2019-05-05T22:58:54.688Z,95880.31
2019-05-05T23:01:26.620Z,95883.75
2019-05-05T23:04:24.002Z,95877.87
2019-05-05T23:07:00.254Z,95879.59
2019-05-05T23:09:31.622Z,95878.13
2019-05-05T23:12:04.198Z,95873.44
2019-05-05T23:14:36.104Z,95882.58
2019-05-05T23:17:26.561Z,95881.77
2019-05-05T23:20:09.379Z,95883.00
2019-05-05T23:22:50.067Z,95885.13
2019-05-05T23:25:29.920Z,95878.14
2019-05-05T23:28:04.115Z,95885.39
2019-05-05T23:30:41.621Z,95886.30
2019-05-05T23:33:08.440Z,95880.70
2019-05-05T23:35:39.832Z,95880.06
2019-05-05T23:38:14.336Z,95880.32
2019-05-05T23:40:45.827Z,95875.23
2019-05-05T23:43:17.246Z,95879.59
2019-05-05T23:45:48.643Z,95876.25
2019-05-05T23:48:20.308Z,95884.11
2019-05-05T23:50:54.170Z,95879.96
2019-05-05T23:53:28.086Z,95882.41
2019-05-05T23:55:59.677Z,95887.10
2019-05-05T23:58:31.103Z,95887.92
